sensor_id;sensor_type;location;lat;lon;timestamp;noise_LAeq;noise_LA_min;noise_LA_max;noise_LA01;noise_LA95
57439;Laerm;43282;47.188;8.896;2023-05-07T00:02:12;48.63;39.46;66.49;;
57439;Laerm;43282;47.188;8.896;2023-05-07T00:04:37;49.48;39.46;63.44;;
57439;Laerm;43282;47.188;8.896;2023-05-07T00:07:03;45.61;37.52;61.92;;
57439;Laerm;43282;47.188;8.896;2023-05-07T00:09:29;46.48;38.95;61.88;;
57439;Laerm;43282;47.188;8.896;2023-05-07T00:11:54;42.24;39.08;47.40;;
57439;Laerm;43282;47.188;8.896;2023-05-07T00:14:20;42.95;38.95;52.37;;
57439;Laerm;43282;47.188;8.896;2023-05-07T00:16:45;47.86;39.08;62.15;;
57439;Laerm;43282;47.188;8.896;2023-05-07T00:19:11;47.45;38.52;60.27;;
57439;Laerm;43282;47.188;8.896;2023-05-07T00:21:36;47.51;39.46;63.22;;
57439;Laerm;43282;47.188;8.896;2023-05-07T00:24:01;45.54;38.05;62.37;;
57439;Laerm;43282;47.188;8.896;2023-05-07T00:26:27;45.58;38.05;61.59;;
57439;Laerm;43282;47.188;8.896;2023-05-07T00:28:52;45.79;38.52;61.53;;
57439;Laerm;43282;47.188;8.896;2023-05-07T00:31:17;45.60;38.05;62.01;;
57439;Laerm;43282;47.188;8.896;2023-05-07T00:33:43;50.98;39.21;65.29;;
57439;Laerm;43282;47.188;8.896;2023-05-07T00:36:08;48.19;38.81;64.25;;
57439;Laerm;43282;47.188;8.896;2023-05-07T00:38:33;48.17;38.21;62.48;;
57439;Laerm;43282;47.188;8.896;2023-05-07T00:40:59;45.47;38.81;62.61;;
57439;Laerm;43282;47.188;8.896;2023-05-07T00:43:24;47.56;37.88;63.73;;
57439;Laerm;43282;47.188;8.896;2023-05-07T00:45:49;49.05;39.21;63.18;;
57439;Laerm;43282;47.188;8.896;2023-05-07T00:48:15;45.70;37.32;61.45;;
57439;Laerm;43282;47.188;8.896;2023-05-07T00:50:40;40.12;36.91;43.97;;
57439;Laerm;43282;47.188;8.896;2023-05-07T00:53:06;47.11;37.70;64.43;;
57439;Laerm;43282;47.188;8.896;2023-05-07T00:55:32;41.20;38.21;45.91;;
57439;Laerm;43282;47.188;8.896;2023-05-07T00:57:57;44.57;38.37;58.51;;
57439;Laerm;43282;47.188;8.896;2023-05-07T01:00:23;49.63;38.67;64.81;;
57439;Laerm;43282;47.188;8.896;2023-05-07T01:02:49;45.11;36.69;63.42;;
57439;Laerm;43282;47.188;8.896;2023-05-07T01:05:15;44.63;37.32;61.28;;
57439;Laerm;43282;47.188;8.896;2023-05-07T01:07:42;46.90;36.20;61.55;;
57439;Laerm;43282;47.188;8.896;2023-05-07T01:10:07;41.21;37.32;45.77;;
57439;Laerm;43282;47.188;8.896;2023-05-07T01:12:36;45.61;37.52;61.98;;
57439;Laerm;43282;47.188;8.896;2023-05-07T01:15:02;40.71;37.12;49.15;;
57439;Laerm;43282;47.188;8.896;2023-05-07T01:17:28;42.01;36.69;50.69;;
57439;Laerm;43282;47.188;8.896;2023-05-07T01:19:53;49.22;38.95;62.86;;
57439;Laerm;43282;47.188;8.896;2023-05-07T01:22:26;48.06;38.67;59.22;;
57439;Laerm;43282;47.188;8.896;2023-05-07T01:24:53;46.73;39.58;62.56;;
57439;Laerm;43282;47.188;8.896;2023-05-07T01:27:21;46.25;38.95;58.69;;
57439;Laerm;43282;47.188;8.896;2023-05-07T01:29:46;43.35;36.20;54.37;;
57439;Laerm;43282;47.188;8.896;2023-05-07T01:32:11;45.12;37.32;60.34;;
57439;Laerm;43282;47.188;8.896;2023-05-07T01:34:38;41.72;36.91;63.01;;
57439;Laerm;43282;47.188;8.896;2023-05-07T01:37:04;41.78;36.45;62.28;;
57439;Laerm;43282;47.188;8.896;2023-05-07T01:39:30;44.63;37.52;59.41;;
57439;Laerm;43282;47.188;8.896;2023-05-07T01:41:55;49.15;39.70;63.58;;
57439;Laerm;43282;47.188;8.896;2023-05-07T01:44:22;45.61;37.52;62.00;;
57439;Laerm;43282;47.188;8.896;2023-05-07T01:46:47;47.09;40.03;65.59;;
57439;Laerm;43282;47.188;8.896;2023-05-07T01:49:13;48.22;39.46;61.07;;
57439;Laerm;43282;47.188;8.896;2023-05-07T01:51:39;48.85;36.69;63.93;;
57439;Laerm;43282;47.188;8.896;2023-05-07T01:54:05;46.22;38.05;62.24;;
57439;Laerm;43282;47.188;8.896;2023-05-07T01:56:30;41.14;36.20;45.96;;
57439;Laerm;43282;47.188;8.896;2023-05-07T01:58:56;47.44;36.69;68.53;;
57439;Laerm;43282;47.188;8.896;2023-05-07T02:01:21;46.72;37.32;63.22;;
57439;Laerm;43282;47.188;8.896;2023-05-07T02:03:47;41.61;37.52;48.37;;
57439;Laerm;43282;47.188;8.896;2023-05-07T02:06:12;41.59;38.37;45.04;;
57439;Laerm;43282;47.188;8.896;2023-05-07T02:08:37;40.83;37.12;45.30;;
57439;Laerm;43282;47.188;8.896;2023-05-07T02:11:03;47.31;37.70;62.14;;
57439;Laerm;43282;47.188;8.896;2023-05-07T02:13:29;46.15;39.34;61.50;;
57439;Laerm;43282;47.188;8.896;2023-05-07T02:15:55;43.58;37.52;58.18;;
57439;Laerm;43282;47.188;8.896;2023-05-07T02:18:20;41.26;38.67;49.21;;
57439;Laerm;43282;47.188;8.896;2023-05-07T02:20:45;44.66;36.91;60.95;;
57439;Laerm;43282;47.188;8.896;2023-05-07T02:23:10;43.08;36.20;57.78;;
57439;Laerm;43282;47.188;8.896;2023-05-07T02:25:36;44.16;37.12;60.48;;
57439;Laerm;43282;47.188;8.896;2023-05-07T02:28:01;40.86;36.91;47.42;;
57439;Laerm;43282;47.188;8.896;2023-05-07T02:30:26;48.99;37.87;63.60;;
57439;Laerm;43282;47.188;8.896;2023-05-07T02:32:52;42.13;38.81;46.25;;
57439;Laerm;43282;47.188;8.896;2023-05-07T02:35:17;44.86;39.34;60.72;;
57439;Laerm;43282;47.188;8.896;2023-05-07T02:37:43;45.43;39.08;62.83;;
57439;Laerm;43282;47.188;8.896;2023-05-07T02:40:13;47.79;38.87;65.34;;
57439;Laerm;43282;47.188;8.896;2023-05-07T02:42:38;50.47;39.46;67.79;;
57439;Laerm;43282;47.188;8.896;2023-05-07T02:45:04;46.35;37.12;63.93;;
57439;Laerm;43282;47.188;8.896;2023-05-07T02:47:29;42.09;36.91;49.18;;
57439;Laerm;43282;47.188;8.896;2023-05-07T02:49:55;42.68;39.08;50.90;;
57439;Laerm;43282;47.188;8.896;2023-05-07T02:52:20;47.57;38.37;62.76;;
57439;Laerm;43282;47.188;8.896;2023-05-07T02:54:45;49.28;38.05;63.36;;
57439;Laerm;43282;47.188;8.896;2023-05-07T02:57:10;52.93;38.05;77.33;;
57439;Laerm;43282;47.188;8.896;2023-05-07T02:59:36;44.69;37.12;60.55;;
57439;Laerm;43282;47.188;8.896;2023-05-07T03:02:01;43.75;37.52;53.00;;
57439;Laerm;43282;47.188;8.896;2023-05-07T03:04:26;42.81;38.81;57.48;;
57439;Laerm;43282;47.188;8.896;2023-05-07T03:06:52;46.22;39.21;61.08;;
57439;Laerm;43282;47.188;8.896;2023-05-07T03:09:17;46.54;38.21;59.43;;
57439;Laerm;43282;47.188;8.896;2023-05-07T03:11:42;44.99;37.52;60.17;;
57439;Laerm;43282;47.188;8.896;2023-05-07T03:14:07;47.57;38.95;64.85;;
57439;Laerm;43282;47.188;8.896;2023-05-07T03:16:33;50.35;38.52;66.00;;
57439;Laerm;43282;47.188;8.896;2023-05-07T03:18:58;51.95;40.43;68.04;;
57439;Laerm;43282;47.188;8.896;2023-05-07T03:21:23;51.81;39.81;66.14;;
57439;Laerm;43282;47.188;8.896;2023-05-07T03:23:48;52.46;39.46;76.50;;
57439;Laerm;43282;47.188;8.896;2023-05-07T03:26:14;56.34;40.23;75.56;;
57439;Laerm;43282;47.188;8.896;2023-05-07T03:28:39;55.50;38.52;74.98;;
57439;Laerm;43282;47.188;8.896;2023-05-07T03:31:04;54.67;39.34;73.69;;
57439;Laerm;43282;47.188;8.896;2023-05-07T03:33:32;51.50;40.03;74.69;;
57439;Laerm;43282;47.188;8.896;2023-05-07T03:35:58;42.44;39.23;55.73;;
57439;Laerm;43282;47.188;8.896;2023-05-07T03:38:23;45.65;38.37;61.28;;
57439;Laerm;43282;47.188;8.896;2023-05-07T03:40:48;48.43;38.47;61.63;;
57439;Laerm;43282;47.188;8.896;2023-05-07T03:43:14;47.36;39.58;60.22;;
57439;Laerm;43282;47.188;8.896;2023-05-07T03:45:39;50.23;39.21;63.02;;
57439;Laerm;43282;47.188;8.896;2023-05-07T03:48:04;52.27;40.89;64.81;;
57439;Laerm;43282;47.188;8.896;2023-05-07T03:50:29;51.65;40.33;63.01;;
57439;Laerm;43282;47.188;8.896;2023-05-07T03:52:55;52.20;39.81;64.13;;
57439;Laerm;43282;47.188;8.896;2023-05-07T03:55:20;53.57;40.71;65.77;;
57439;Laerm;43282;47.188;8.896;2023-05-07T03:57:45;52.19;40.53;66.43;;
57439;Laerm;43282;47.188;8.896;2023-05-07T04:00:11;52.87;40.23;66.00;;
57439;Laerm;43282;47.188;8.896;2023-05-07T04:02:55;49.26;40.53;65.35;;
57439;Laerm;43282;47.188;8.896;2023-05-07T04:05:21;48.21;41.82;61.26;;
57439;Laerm;43282;47.188;8.896;2023-05-07T04:07:46;47.14;40.43;61.71;;
57439;Laerm;43282;47.188;8.896;2023-05-07T04:10:11;49.92;39.58;66.01;;
57439;Laerm;43282;47.188;8.896;2023-05-07T04:12:38;49.32;39.81;69.85;;
57439;Laerm;43282;47.188;8.896;2023-05-07T04:15:03;45.66;38.52;59.18;;
57439;Laerm;43282;47.188;8.896;2023-05-07T04:17:29;49.39;40.71;67.25;;
57439;Laerm;43282;47.188;8.896;2023-05-07T04:19:54;50.27;40.23;71.41;;
57439;Laerm;43282;47.188;8.896;2023-05-07T04:22:20;49.35;40.71;63.27;;
57439;Laerm;43282;47.188;8.896;2023-05-07T04:24:45;48.52;40.23;62.06;;
57439;Laerm;43282;47.188;8.896;2023-05-07T04:27:10;48.44;40.62;61.92;;
57439;Laerm;43282;47.188;8.896;2023-05-07T04:29:35;47.94;40.89;61.23;;
57439;Laerm;43282;47.188;8.896;2023-05-07T04:32:01;48.76;41.68;63.46;;
57439;Laerm;43282;47.188;8.896;2023-05-07T04:34:26;49.98;40.62;63.17;;
57439;Laerm;43282;47.188;8.896;2023-05-07T04:36:52;49.54;41.94;63.34;;
57439;Laerm;43282;47.188;8.896;2023-05-07T04:39:17;49.10;40.80;63.02;;
57439;Laerm;43282;47.188;8.896;2023-05-07T04:41:42;50.71;41.68;63.45;;
57439;Laerm;43282;47.188;8.896;2023-05-07T04:44:08;51.50;41.22;64.72;;
57439;Laerm;43282;47.188;8.896;2023-05-07T04:46:34;50.39;41.22;66.73;;
57439;Laerm;43282;47.188;8.896;2023-05-07T04:48:59;48.50;40.98;62.44;;
57439;Laerm;43282;47.188;8.896;2023-05-07T04:51:25;50.31;40.43;64.38;;
57439;Laerm;43282;47.188;8.896;2023-05-07T04:53:50;54.45;41.46;66.01;;
57439;Laerm;43282;47.188;8.896;2023-05-07T04:56:15;51.16;42.29;64.99;;
57439;Laerm;43282;47.188;8.896;2023-05-07T04:58:41;54.78;42.64;68.84;;
57439;Laerm;43282;47.188;8.896;2023-05-07T05:01:06;52.14;41.30;68.97;;
57439;Laerm;43282;47.188;8.896;2023-05-07T05:03:32;52.64;40.98;67.84;;
57439;Laerm;43282;47.188;8.896;2023-05-07T05:05:57;49.86;41.75;68.66;;
57439;Laerm;43282;47.188;8.896;2023-05-07T05:08:24;55.26;41.46;72.26;;
57439;Laerm;43282;47.188;8.896;2023-05-07T05:10:49;54.76;42.03;71.95;;
57439;Laerm;43282;47.188;8.896;2023-05-07T05:13:15;54.16;42.47;70.16;;
57439;Laerm;43282;47.188;8.896;2023-05-07T05:15:40;53.36;41.82;71.25;;
57439;Laerm;43282;47.188;8.896;2023-05-07T05:18:05;51.66;42.29;64.17;;
57439;Laerm;43282;47.188;8.896;2023-05-07T05:20:31;48.73;41.46;63.12;;
57439;Laerm;43282;47.188;8.896;2023-05-07T05:22:56;51.56;41.38;65.40;;
57439;Laerm;43282;47.188;8.896;2023-05-07T05:25:22;51.43;41.30;65.64;;
57439;Laerm;43282;47.188;8.896;2023-05-07T05:27:47;50.32;41.14;65.73;;
57439;Laerm;43282;47.188;8.896;2023-05-07T05:30:12;51.25;41.22;64.68;;
57439;Laerm;43282;47.188;8.896;2023-05-07T05:32:38;54.43;42.82;67.78;;
57439;Laerm;43282;47.188;8.896;2023-05-07T05:35:03;49.86;41.06;64.51;;
57439;Laerm;43282;47.188;8.896;2023-05-07T05:37:29;52.29;41.61;67.56;;
57439;Laerm;43282;47.188;8.896;2023-05-07T05:39:55;53.24;41.75;66.86;;
57439;Laerm;43282;47.188;8.896;2023-05-07T05:42:21;53.32;42.98;67.20;;
57439;Laerm;43282;47.188;8.896;2023-05-07T05:44:46;56.61;44.27;72.81;;
57439;Laerm;43282;47.188;8.896;2023-05-07T05:47:11;52.03;43.24;67.92;;
57439;Laerm;43282;47.188;8.896;2023-05-07T05:49:37;50.48;43.04;62.68;;
57439;Laerm;43282;47.188;8.896;2023-05-07T05:52:02;53.07;43.14;66.27;;
57439;Laerm;43282;47.188;8.896;2023-05-07T05:54:27;55.69;44.07;68.55;;
57439;Laerm;43282;47.188;8.896;2023-05-07T05:56:52;54.26;43.19;69.01;;
57439;Laerm;43282;47.188;8.896;2023-05-07T05:59:18;52.06;44.27;64.81;;
57439;Laerm;43282;47.188;8.896;2023-05-07T06:01:43;52.62;41.68;66.50;;
57439;Laerm;43282;47.188;8.896;2023-05-07T06:04:08;53.98;43.54;68.40;;
57439;Laerm;43282;47.188;8.896;2023-05-07T06:06:34;50.84;42.82;64.71;;
57439;Laerm;43282;47.188;8.896;2023-05-07T06:08:59;51.21;43.63;61.56;;
57439;Laerm;43282;47.188;8.896;2023-05-07T06:11:24;49.94;43.58;62.54;;
57439;Laerm;43282;47.188;8.896;2023-05-07T06:13:50;54.91;43.34;71.10;;
57439;Laerm;43282;47.188;8.896;2023-05-07T06:16:15;53.39;42.59;69.99;;
57439;Laerm;43282;47.188;8.896;2023-05-07T06:18:41;52.07;42.76;64.71;;
57439;Laerm;43282;47.188;8.896;2023-05-07T06:21:06;54.13;43.09;66.14;;
57439;Laerm;43282;47.188;8.896;2023-05-07T06:23:31;50.34;41.96;65.81;;
57439;Laerm;43282;47.188;8.896;2023-05-07T06:25:57;52.46;42.71;67.02;;
57439;Laerm;43282;47.188;8.896;2023-05-07T06:28:22;47.54;43.34;60.78;;
57439;Laerm;43282;47.188;8.896;2023-05-07T06:30:47;49.64;42.03;61.33;;
57439;Laerm;43282;47.188;8.896;2023-05-07T06:33:15;53.48;41.75;68.65;;
57439;Laerm;43282;47.188;8.896;2023-05-07T06:35:40;49.51;41.14;64.56;;
57439;Laerm;43282;47.188;8.896;2023-05-07T06:38:05;47.81;41.30;65.21;;
57439;Laerm;43282;47.188;8.896;2023-05-07T06:40:30;54.76;42.03;76.77;;
57439;Laerm;43282;47.188;8.896;2023-05-07T06:42:56;51.47;41.68;69.01;;
57439;Laerm;43282;47.188;8.896;2023-05-07T06:45:21;54.09;42.58;70.07;;
57439;Laerm;43282;47.188;8.896;2023-05-07T06:47:47;51.50;42.47;77.08;;
57439;Laerm;43282;47.188;8.896;2023-05-07T06:50:12;52.65;42.82;65.17;;
57439;Laerm;43282;47.188;8.896;2023-05-07T06:52:38;53.38;42.41;69.96;;
57439;Laerm;43282;47.188;8.896;2023-05-07T06:55:03;52.94;43.44;67.43;;
57439;Laerm;43282;47.188;8.896;2023-05-07T06:57:28;52.86;43.44;62.64;;
57439;Laerm;43282;47.188;8.896;2023-05-07T06:59:53;50.50;42.16;61.79;;
57439;Laerm;43282;47.188;8.896;2023-05-07T07:02:19;55.71;44.15;68.44;;
57439;Laerm;43282;47.188;8.896;2023-05-07T07:04:44;52.68;42.47;63.17;;
57439;Laerm;43282;47.188;8.896;2023-05-07T07:07:10;53.36;41.89;64.35;;
57439;Laerm;43282;47.188;8.896;2023-05-07T07:09:35;49.01;41.06;62.51;;
57439;Laerm;43282;47.188;8.896;2023-05-07T07:12:00;50.50;41.68;63.20;;
57439;Laerm;43282;47.188;8.896;2023-05-07T07:14:26;51.51;40.53;64.71;;
57439;Laerm;43282;47.188;8.896;2023-05-07T07:16:51;54.06;40.53;70.04;;
57439;Laerm;43282;47.188;8.896;2023-05-07T07:19:16;52.94;40.98;66.10;;
57439;Laerm;43282;47.188;8.896;2023-05-07T07:21:42;52.75;41.68;65.93;;
57439;Laerm;43282;47.188;8.896;2023-05-07T07:24:07;52.97;41.89;64.36;;
57439;Laerm;43282;47.188;8.896;2023-05-07T07:26:32;52.86;42.76;63.54;;
57439;Laerm;43282;47.188;8.896;2023-05-07T07:28:58;55.66;45.01;65.31;;
57439;Laerm;43282;47.188;8.896;2023-05-07T07:31:23;54.20;42.09;66.71;;
57439;Laerm;43282;47.188;8.896;2023-05-07T07:33:48;53.44;43.14;65.82;;
57439;Laerm;43282;47.188;8.896;2023-05-07T07:36:15;51.02;41.61;62.52;;
57439;Laerm;43282;47.188;8.896;2023-05-07T07:38:40;54.24;42.65;64.56;;
57439;Laerm;43282;47.188;8.896;2023-05-07T07:41:07;53.87;42.47;66.39;;
57439;Laerm;43282;47.188;8.896;2023-05-07T07:43:32;53.96;42.16;65.74;;
57439;Laerm;43282;47.188;8.896;2023-05-07T07:45:58;55.02;43.49;67.57;;
57439;Laerm;43282;47.188;8.896;2023-05-07T07:48:24;55.01;42.47;69.20;;
57439;Laerm;43282;47.188;8.896;2023-05-07T07:50:49;57.11;43.54;67.67;;
57439;Laerm;43282;47.188;8.896;2023-05-07T07:53:16;55.66;44.27;72.03;;
57439;Laerm;43282;47.188;8.896;2023-05-07T07:55:41;54.80;44.54;69.41;;
57439;Laerm;43282;47.188;8.896;2023-05-07T07:58:07;53.80;43.72;65.60;;
57439;Laerm;43282;47.188;8.896;2023-05-07T08:00:32;57.42;43.46;71.46;;
57439;Laerm;43282;47.188;8.896;2023-05-07T08:02:57;57.09;44.11;69.54;;
57439;Laerm;43282;47.188;8.896;2023-05-07T08:05:24;55.72;43.94;69.36;;
57439;Laerm;43282;47.188;8.896;2023-05-07T08:07:50;52.05;44.31;62.58;;
57439;Laerm;43282;47.188;8.896;2023-05-07T08:10:17;54.60;43.58;70.66;;
57439;Laerm;43282;47.188;8.896;2023-05-07T08:12:47;51.54;44.07;63.10;;
57439;Laerm;43282;47.188;8.896;2023-05-07T08:15:12;53.94;44.27;66.37;;
57439;Laerm;43282;47.188;8.896;2023-05-07T08:17:38;53.63;44.11;67.29;;
57439;Laerm;43282;47.188;8.896;2023-05-07T08:20:03;58.03;47.24;74.34;;
57439;Laerm;43282;47.188;8.896;2023-05-07T08:22:29;55.71;48.16;64.93;;
57439;Laerm;43282;47.188;8.896;2023-05-07T08:24:54;58.05;47.30;71.30;;
57439;Laerm;43282;47.188;8.896;2023-05-07T08:27:20;56.04;47.14;67.88;;
57439;Laerm;43282;47.188;8.896;2023-05-07T08:29:45;57.28;47.68;71.90;;
57439;Laerm;43282;47.188;8.896;2023-05-07T08:32:12;56.85;46.89;66.16;;
57439;Laerm;43282;47.188;8.896;2023-05-07T08:34:37;55.92;46.48;65.63;;
57439;Laerm;43282;47.188;8.896;2023-05-07T08:37:03;54.90;47.14;66.94;;
57439;Laerm;43282;47.188;8.896;2023-05-07T08:39:29;54.63;46.55;66.49;;
57439;Laerm;43282;47.188;8.896;2023-05-07T08:41:54;55.70;47.95;65.82;;
57439;Laerm;43282;47.188;8.896;2023-05-07T08:44:20;57.57;49.45;67.68;;
57439;Laerm;43282;47.188;8.896;2023-05-07T08:46:47;57.08;48.95;73.69;;
57439;Laerm;43282;47.188;8.896;2023-05-07T08:49:16;57.30;48.99;74.13;;
57439;Laerm;43282;47.188;8.896;2023-05-07T08:51:42;56.36;47.36;75.45;;
57439;Laerm;43282;47.188;8.896;2023-05-07T08:54:07;57.89;48.73;81.00;;
57439;Laerm;43282;47.188;8.896;2023-05-07T08:56:34;57.46;49.52;73.15;;
57439;Laerm;43282;47.188;8.896;2023-05-07T08:58:59;58.37;48.60;73.30;;
57439;Laerm;43282;47.188;8.896;2023-05-07T09:01:25;58.88;49.80;76.76;;
57439;Laerm;43282;47.188;8.896;2023-05-07T09:03:51;58.40;50.86;72.58;;
57439;Laerm;43282;47.188;8.896;2023-05-07T09:06:16;57.85;50.92;66.78;;
57439;Laerm;43282;47.188;8.896;2023-05-07T09:08:48;58.15;48.95;66.26;;
57439;Laerm;43282;47.188;8.896;2023-05-07T09:11:13;58.47;50.70;66.88;;
57439;Laerm;43282;47.188;8.896;2023-05-07T09:13:39;59.04;51.25;70.74;;
57439;Laerm;43282;47.188;8.896;2023-05-07T09:16:11;58.45;51.71;68.91;;
57439;Laerm;43282;47.188;8.896;2023-05-07T09:18:40;58.48;49.94;67.21;;
57439;Laerm;43282;47.188;8.896;2023-05-07T09:21:08;57.77;49.27;64.74;;
57439;Laerm;43282;47.188;8.896;2023-05-07T09:23:34;58.54;48.95;74.60;;
57439;Laerm;43282;47.188;8.896;2023-05-07T09:26:00;57.05;49.39;68.62;;
57439;Laerm;43282;47.188;8.896;2023-05-07T09:28:26;57.39;47.57;69.24;;
57439;Laerm;43282;47.188;8.896;2023-05-07T09:30:52;56.69;48.12;69.88;;
57439;Laerm;43282;47.188;8.896;2023-05-07T09:33:17;56.89;47.68;69.09;;
57439;Laerm;43282;47.188;8.896;2023-05-07T09:35:42;56.42;48.61;72.17;;
57439;Laerm;43282;47.188;8.896;2023-05-07T09:38:08;56.02;47.34;68.33;;
57439;Laerm;43282;47.188;8.896;2023-05-07T09:40:33;54.74;43.86;74.53;;
57439;Laerm;43282;47.188;8.896;2023-05-07T09:43:08;61.49;45.14;92.55;;
57439;Laerm;43282;47.188;8.896;2023-05-07T09:45:33;53.84;43.90;70.27;;
57439;Laerm;43282;47.188;8.896;2023-05-07T09:47:59;54.68;44.39;78.85;;
57439;Laerm;43282;47.188;8.896;2023-05-07T09:50:29;54.84;44.19;69.71;;
57439;Laerm;43282;47.188;8.896;2023-05-07T09:52:55;51.48;43.09;62.59;;
57439;Laerm;43282;47.188;8.896;2023-05-07T09:55:21;56.03;43.63;74.99;;
57439;Laerm;43282;47.188;8.896;2023-05-07T09:57:48;53.22;42.82;74.29;;
57439;Laerm;43282;47.188;8.896;2023-05-07T10:00:15;56.11;43.24;73.15;;
57439;Laerm;43282;47.188;8.896;2023-05-07T10:02:46;54.60;42.16;70.79;;
57439;Laerm;43282;47.188;8.896;2023-05-07T10:05:19;57.18;42.82;74.99;;
57439;Laerm;43282;47.188;8.896;2023-05-07T10:07:47;55.07;43.19;67.04;;
57439;Laerm;43282;47.188;8.896;2023-05-07T10:10:13;53.17;43.94;64.74;;
57439;Laerm;43282;47.188;8.896;2023-05-07T10:12:39;53.91;44.65;72.51;;
57439;Laerm;43282;47.188;8.896;2023-05-07T10:15:08;55.07;43.86;70.17;;
57439;Laerm;43282;47.188;8.896;2023-05-07T10:17:35;53.67;43.54;65.44;;
57439;Laerm;43282;47.188;8.896;2023-05-07T10:20:01;53.79;42.88;66.38;;
57439;Laerm;43282;47.188;8.896;2023-05-07T10:22:27;53.89;44.39;65.95;;
57439;Laerm;43282;47.188;8.896;2023-05-07T10:24:54;53.68;43.54;67.36;;
57439;Laerm;43282;47.188;8.896;2023-05-07T10:27:21;56.67;43.54;74.19;;
57439;Laerm;43282;47.188;8.896;2023-05-07T10:29:53;62.00;43.34;88.24;;
57439;Laerm;43282;47.188;8.896;2023-05-07T10:32:56;56.06;43.54;79.60;;
57439;Laerm;43282;47.188;8.896;2023-05-07T10:35:25;53.37;41.06;75.52;;
57439;Laerm;43282;47.188;8.896;2023-05-07T10:37:51;52.84;41.30;67.92;;
57439;Laerm;43282;47.188;8.896;2023-05-07T10:40:17;52.62;41.38;64.04;;
57439;Laerm;43282;47.188;8.896;2023-05-07T10:43:00;54.23;41.30;76.64;;
57439;Laerm;43282;47.188;8.896;2023-05-07T10:45:26;56.37;41.53;69.36;;
57439;Laerm;43282;47.188;8.896;2023-05-07T10:50:37;54.46;42.09;74.98;;
57439;Laerm;43282;47.188;8.896;2023-05-07T10:55:50;49.55;40.71;60.85;;
57439;Laerm;43282;47.188;8.896;2023-05-07T10:58:25;53.78;41.89;63.80;;
57439;Laerm;43282;47.188;8.896;2023-05-07T11:00:55;55.28;41.46;67.92;;
57439;Laerm;43282;47.188;8.896;2023-05-07T11:03:21;54.42;41.38;69.40;;
57439;Laerm;43282;47.188;8.896;2023-05-07T11:05:47;51.50;41.14;63.50;;
57439;Laerm;43282;47.188;8.896;2023-05-07T11:08:14;52.40;41.75;63.51;;
57439;Laerm;43282;47.188;8.896;2023-05-07T11:10:52;54.65;41.82;65.85;;
57439;Laerm;43282;47.188;8.896;2023-05-07T11:13:18;53.47;40.98;68.60;;
57439;Laerm;43282;47.188;8.896;2023-05-07T11:15:47;55.31;42.93;68.58;;
57439;Laerm;43282;47.188;8.896;2023-05-07T11:18:13;51.87;41.46;69.30;;
57439;Laerm;43282;47.188;8.896;2023-05-07T11:20:46;56.16;42.29;71.12;;
57439;Laerm;43282;47.188;8.896;2023-05-07T11:26:04;52.51;42.47;63.91;;
57439;Laerm;43282;47.188;8.896;2023-05-07T11:28:30;52.38;43.14;65.27;;
57439;Laerm;43282;47.188;8.896;2023-05-07T11:30:56;53.91;42.47;65.62;;
57439;Laerm;43282;47.188;8.896;2023-05-07T11:33:22;55.30;41.61;69.42;;
57439;Laerm;43282;47.188;8.896;2023-05-07T11:35:47;56.81;42.53;74.72;;
57439;Laerm;43282;47.188;8.896;2023-05-07T11:38:13;57.34;41.82;73.47;;
57439;Laerm;43282;47.188;8.896;2023-05-07T11:43:33;53.70;41.14;70.09;;
57439;Laerm;43282;47.188;8.896;2023-05-07T11:48:32;52.22;41.22;67.05;;
57439;Laerm;43282;47.188;8.896;2023-05-07T11:53:24;54.30;41.68;64.32;;
57439;Laerm;43282;47.188;8.896;2023-05-07T11:55:53;54.80;43.29;68.56;;
57439;Laerm;43282;47.188;8.896;2023-05-07T11:58:22;54.91;42.35;66.33;;
57439;Laerm;43282;47.188;8.896;2023-05-07T12:00:48;55.23;41.82;69.82;;
57439;Laerm;43282;47.188;8.896;2023-05-07T12:03:13;58.11;43.24;71.27;;
57439;Laerm;43282;47.188;8.896;2023-05-07T12:05:39;54.42;41.68;66.65;;
57439;Laerm;43282;47.188;8.896;2023-05-07T12:08:06;52.10;41.46;66.07;;
57439;Laerm;43282;47.188;8.896;2023-05-07T12:10:32;56.39;42.93;69.62;;
57439;Laerm;43282;47.188;8.896;2023-05-07T12:12:57;54.13;43.94;64.01;;
57439;Laerm;43282;47.188;8.896;2023-05-07T12:15:22;51.62;41.75;63.81;;
57439;Laerm;43282;47.188;8.896;2023-05-07T12:17:48;57.65;42.29;78.74;;
57439;Laerm;43282;47.188;8.896;2023-05-07T12:20:13;54.80;42.82;64.73;;
57439;Laerm;43282;47.188;8.896;2023-05-07T12:22:40;52.73;42.41;70.24;;
57439;Laerm;43282;47.188;8.896;2023-05-07T12:25:05;55.79;42.76;75.48;;
57439;Laerm;43282;47.188;8.896;2023-05-07T12:27:45;54.05;42.22;65.96;;
57439;Laerm;43282;47.188;8.896;2023-05-07T12:30:16;52.00;41.96;65.45;;
57439;Laerm;43282;47.188;8.896;2023-05-07T12:32:42;55.96;42.16;75.32;;
57439;Laerm;43282;47.188;8.896;2023-05-07T12:35:10;54.06;41.75;66.33;;
57439;Laerm;43282;47.188;8.896;2023-05-07T12:37:35;54.44;41.82;75.16;;
57439;Laerm;43282;47.188;8.896;2023-05-07T12:42:32;52.21;41.38;66.65;;
57439;Laerm;43282;47.188;8.896;2023-05-07T12:44:58;50.05;41.38;61.27;;
57439;Laerm;43282;47.188;8.896;2023-05-07T12:47:23;56.23;43.63;70.57;;
57439;Laerm;43282;47.188;8.896;2023-05-07T12:49:48;55.81;42.41;71.36;;
57439;Laerm;43282;47.188;8.896;2023-05-07T12:52:14;58.15;41.38;73.24;;
57439;Laerm;43282;47.188;8.896;2023-05-07T12:54:39;53.80;43.34;67.41;;
57439;Laerm;43282;47.188;8.896;2023-05-07T12:57:05;54.64;42.16;68.02;;
57439;Laerm;43282;47.188;8.896;2023-05-07T12:59:34;54.68;43.00;66.60;;
57439;Laerm;43282;47.188;8.896;2023-05-07T13:02:00;55.44;42.93;73.17;;
57439;Laerm;43282;47.188;8.896;2023-05-07T13:04:25;53.41;42.88;64.14;;
57439;Laerm;43282;47.188;8.896;2023-05-07T13:06:51;58.87;42.76;77.25;;
57439;Laerm;43282;47.188;8.896;2023-05-07T13:09:19;54.48;42.09;68.50;;
57439;Laerm;43282;47.188;8.896;2023-05-07T13:11:44;54.49;41.55;64.89;;
57439;Laerm;43282;47.188;8.896;2023-05-07T13:14:10;54.68;42.82;69.99;;
57439;Laerm;43282;47.188;8.896;2023-05-07T13:16:35;57.63;42.82;75.08;;
57439;Laerm;43282;47.188;8.896;2023-05-07T13:19:00;54.46;43.77;76.10;;
57439;Laerm;43282;47.188;8.896;2023-05-07T13:21:26;53.87;43.90;68.02;;
57439;Laerm;43282;47.188;8.896;2023-05-07T13:23:52;56.31;43.77;71.89;;
57439;Laerm;43282;47.188;8.896;2023-05-07T13:26:18;56.44;44.39;69.94;;
57439;Laerm;43282;47.188;8.896;2023-05-07T13:28:43;51.14;43.54;66.25;;
57439;Laerm;43282;47.188;8.896;2023-05-07T13:31:08;54.02;43.34;65.16;;
57439;Laerm;43282;47.188;8.896;2023-05-07T13:33:34;56.93;43.14;76.87;;
57439;Laerm;43282;47.188;8.896;2023-05-07T13:36:00;55.26;43.77;65.72;;
57439;Laerm;43282;47.188;8.896;2023-05-07T13:38:26;52.83;42.98;65.03;;
57439;Laerm;43282;47.188;8.896;2023-05-07T13:40:51;52.16;43.34;67.65;;
57439;Laerm;43282;47.188;8.896;2023-05-07T13:43:16;57.34;44.35;69.76;;
57439;Laerm;43282;47.188;8.896;2023-05-07T13:45:44;57.52;44.43;68.71;;
57439;Laerm;43282;47.188;8.896;2023-05-07T13:48:09;54.56;42.98;66.27;;
57439;Laerm;43282;47.188;8.896;2023-05-07T13:50:34;53.74;43.58;71.04;;
57439;Laerm;43282;47.188;8.896;2023-05-07T13:53:00;53.87;44.07;69.28;;
57439;Laerm;43282;47.188;8.896;2023-05-07T13:55:25;53.31;43.24;69.66;;
57439;Laerm;43282;47.188;8.896;2023-05-07T13:57:54;56.30;44.35;70.42;;